Portada
METAR-TAF:

METAR-TAF

Aeroports :

Tanna, Vanuatu

latitud: 19-27-18S, longitud: 169-13-26E, altitud: 6 m

Observació

L'informe es va fer fa 3 hores i 2 minuts, a les 15:00 UTC
Vent 7 kt del Sud-Est
Temperatura 25°C
Humitat 79%
Pressió 1013 hPa

METAR: NVVW 171500Z AUTO 13007KT //// // NCD 25/21 Q1013

Hora: 05:02 (18:02 UTC)

Pronòstic

L'informe es va fer fa 1 hora i 2 minuts, a les 17:00 UTC
Pronòstic vàlid del 17 a les 18 UTC al 18 a les 18 UTC
Vent 10 kt del Sud-Est
Visibilitat: 8000 m
Núvols disperses a una alçada de 2000 ft
Cel ennuvolat a una alçada de 4000 ft
Escasses núvols a una alçada de 1000 ft
Cel ennuvolat a una alçada de 1800 ft
Cel cobert a una alçada de 3800 ft
xàfecs de pluja

TAF: NVVW 171700Z 1718/1818 13010KT 9999 SCT020 BKN040 INTER 1718/1724 8000 SHRA FEW010 BKN018 OVC038

Observacions i pronòstics meteorològics de més de 4000 aeroports (METAR i TAF).

Les estacions disponibles són els punts grocs i vermells al mapa.

Posi el ratolí al punt desitjat per veure el nom de l'estació.

Feu clic per veure les observacions i els pronòstics meteorològics.

Per canviar el mapa: feu clic els botons verds amb una creu de color negre per apropar; al botó verd amb un guió per allunyar la imatge; o en les fletxes verdes per a mapes adjacents.


METAR-TAF: